createdAt,value
2023-05-20T00:00:34.958Z,0.13
2023-05-20T00:05:37.089Z,1.88
2023-05-20T00:10:39.052Z,0.40
2023-05-20T00:15:42.297Z,0.65
2023-05-20T00:20:44.012Z,0.38
2023-05-20T00:25:45.711Z,0.63
2023-05-20T00:30:48.886Z,0.50
2023-05-20T00:35:50.616Z,1.52
2023-05-20T00:40:52.347Z,0.30
2023-05-20T00:45:55.915Z,1.33
2023-05-20T00:50:57.632Z,1.77
2023-05-20T00:55:59.374Z,1.35
2023-05-20T01:01:02.895Z,2.47
2023-05-20T01:06:04.636Z,0.35
2023-05-20T01:11:14.854Z,0.38
2023-05-20T01:16:18.593Z,0.75
2023-05-20T01:21:20.563Z,1.40
2023-05-20T01:26:23.617Z,0.25
2023-05-20T01:31:30.018Z,0.47
2023-05-20T01:36:32.932Z,0.10
2023-05-20T01:41:37.683Z,0.35
2023-05-20T01:46:39.465Z,0.87
2023-05-20T01:51:41.504Z,1.45
2023-05-20T01:56:45.835Z,1.95
2023-05-20T02:01:47.853Z,1.77
2023-05-20T02:06:49.634Z,0.85
2023-05-20T02:11:52.869Z,0.95
2023-05-20T02:16:54.647Z,0.82
2023-05-20T02:21:56.370Z,2.13
2023-05-20T02:26:59.714Z,0.52
2023-05-20T02:32:01.529Z,7.25
2023-05-20T02:37:03.438Z,2.15
2023-05-20T02:42:06.753Z,1.20
2023-05-20T02:47:08.456Z,0.82
2023-05-20T02:52:10.159Z,3.03
2023-05-20T02:57:13.318Z,3.42
2023-05-20T03:02:14.989Z,1.08
2023-05-20T03:07:16.765Z,6.47
2023-05-20T03:12:19.829Z,1.27
2023-05-20T03:17:21.688Z,2.15
2023-05-20T03:22:23.604Z,3.65
2023-05-20T03:27:26.821Z,0.85
2023-05-20T03:32:28.619Z,0.63
2023-05-20T03:37:30.782Z,1.23
2023-05-20T03:42:34.118Z,0.93
2023-05-20T03:47:35.858Z,1.83
2023-05-20T03:52:37.725Z,0.20
2023-05-20T03:57:40.846Z,2.08
2023-05-20T04:02:42.882Z,2.47
2023-05-20T04:07:44.727Z,0.52
2023-05-20T04:12:47.846Z,0.30
2023-05-20T04:17:49.753Z,1.40
2023-05-20T04:22:51.537Z,6.07
2023-05-20T04:27:54.576Z,3.63
2023-05-20T04:32:56.318Z,1.33
2023-05-20T04:37:58.198Z,0.68
2023-05-20T04:43:01.343Z,0.95
2023-05-20T04:48:03.435Z,1.33
2023-05-20T04:53:05.089Z,5.95
2023-05-20T04:58:08.252Z,2.22
2023-05-20T05:03:10.073Z,0.95
2023-05-20T05:08:11.814Z,1.02
2023-05-20T05:13:14.869Z,4.22
2023-05-20T05:18:16.646Z,1.23
2023-05-20T05:23:18.317Z,4.53
2023-05-20T05:28:21.536Z,0.90
2023-05-20T05:33:23.267Z,0.85
2023-05-20T05:38:25.058Z,0.93
2023-05-20T05:43:31.439Z,2.40
2023-05-20T05:48:33.203Z,4.38
2023-05-20T05:53:34.859Z,3.30
2023-05-20T05:58:38.240Z,1.38
2023-05-20T06:03:40.096Z,1.13
2023-05-20T06:08:41.801Z,2.13
2023-05-20T06:13:44.811Z,0.50
2023-05-20T06:18:46.853Z,3.38
2023-05-20T06:23:48.676Z,2.85
2023-05-20T06:28:52.145Z,2.35
2023-05-20T06:33:53.907Z,1.75
2023-05-20T06:38:55.633Z,1.73
2023-05-20T06:43:58.824Z,1.42
2023-05-20T06:49:00.724Z,1.58
2023-05-20T06:54:02.525Z,1.15
2023-05-20T06:59:05.691Z,1.13
2023-05-20T07:04:07.476Z,5.47
2023-05-20T07:09:09.405Z,0.95
2023-05-20T07:14:12.611Z,0.80
2023-05-20T07:19:14.404Z,0.50
2023-05-20T07:24:16.420Z,1.75
2023-05-20T07:29:19.610Z,0.50
2023-05-20T07:34:21.306Z,8.30
2023-05-20T07:39:23.016Z,1.65
2023-05-20T07:44:26.141Z,3.08
2023-05-20T07:49:27.815Z,4.20
2023-05-20T07:54:29.631Z,1.20
2023-05-20T07:59:32.718Z,5.40
2023-05-20T08:04:34.627Z,4.85
2023-05-20T08:09:36.458Z,4.00
2023-05-20T08:14:39.597Z,3.53
2023-05-20T08:19:41.300Z,3.40
2023-05-20T08:24:42.959Z,3.72
2023-05-20T08:29:46.030Z,5.03
2023-05-20T08:34:47.703Z,3.58
2023-05-20T08:39:49.533Z,5.80
2023-05-20T08:44:54.246Z,2.17
2023-05-20T08:49:55.957Z,1.90
2023-05-20T08:54:58.789Z,1.40
2023-05-20T09:00:02.631Z,4.07
2023-05-20T09:05:05.607Z,5.35
2023-05-20T09:10:08.157Z,1.77
2023-05-20T09:15:11.423Z,4.20
2023-05-20T09:20:13.887Z,6.70
2023-05-20T09:25:19.967Z,3.53
2023-05-20T09:30:24.650Z,4.57
2023-05-20T09:35:28.031Z,2.33
2023-05-20T09:40:29.986Z,1.92
2023-05-20T09:45:33.421Z,2.50
2023-05-20T09:50:35.753Z,1.38
2023-05-20T09:55:38.384Z,5.07
2023-05-20T10:00:41.468Z,3.28
2023-05-20T10:05:52.111Z,3.92
2023-05-20T10:11:09.611Z,4.43
2023-05-20T10:16:30.802Z,9.35
2023-05-20T10:21:33.327Z,10.55
2023-05-20T10:26:36.088Z,10.60
2023-05-20T10:31:45.098Z,3.95
2023-05-20T10:36:58.815Z,7.57
2023-05-20T10:42:07.629Z,2.38
2023-05-20T10:52:17.170Z,4.00
2023-05-20T10:57:19.144Z,3.58
2023-05-20T11:02:22.930Z,4.97
2023-05-20T11:07:26.431Z,5.05
2023-05-20T11:12:28.280Z,2.90
2023-05-20T11:17:31.533Z,4.55
2023-05-20T11:22:33.261Z,10.25
2023-05-20T11:27:34.941Z,3.67
2023-05-20T11:32:59.921Z,2.22
2023-05-20T11:38:06.722Z,3.00
2023-05-20T11:43:11.954Z,2.05
2023-05-20T11:53:17.711Z,3.13
2023-05-20T11:58:20.754Z,5.35
2023-05-20T12:03:24.444Z,4.13
2023-05-20T12:08:26.289Z,3.83
2023-05-20T12:13:28.134Z,4.80
2023-05-20T12:18:31.341Z,2.58
2023-05-20T12:23:33.148Z,4.50
2023-05-20T12:28:34.941Z,4.32
2023-05-20T12:33:37.973Z,4.38
2023-05-20T12:38:39.818Z,3.20
2023-05-20T12:43:41.521Z,4.10
2023-05-20T12:48:44.652Z,4.78
2023-05-20T12:53:46.460Z,5.03
2023-05-20T12:58:48.641Z,11.02
2023-05-20T13:03:51.845Z,9.35
2023-05-20T13:08:53.560Z,9.45
2023-05-20T13:13:55.631Z,2.17
2023-05-20T13:18:58.702Z,2.20
2023-05-20T13:24:00.542Z,4.03
2023-05-20T13:29:02.229Z,4.45
2023-05-20T13:34:06.010Z,8.05
2023-05-20T13:39:07.714Z,5.93
2023-05-20T13:44:09.852Z,5.30
2023-05-20T13:49:13.002Z,3.78
2023-05-20T13:54:14.863Z,7.30
2023-05-20T13:59:16.688Z,2.70
2023-05-20T14:04:19.769Z,5.20
2023-05-20T14:09:21.550Z,5.07
2023-05-20T14:14:23.290Z,3.15
2023-05-20T14:19:26.456Z,3.00
2023-05-20T14:24:28.299Z,2.90
2023-05-20T14:29:30.002Z,3.55
2023-05-20T14:34:33.106Z,5.40
2023-05-20T14:39:34.954Z,4.00
2023-05-20T14:44:36.606Z,4.28
2023-05-20T14:49:39.649Z,3.90
2023-05-20T14:54:42.671Z,3.53
2023-05-20T14:59:44.626Z,4.75
2023-05-20T15:04:47.683Z,2.90
2023-05-20T15:09:49.422Z,2.78
2023-05-20T15:14:51.088Z,5.90
2023-05-20T15:19:54.106Z,3.67
2023-05-20T15:24:55.735Z,3.97
2023-05-20T15:29:57.401Z,2.75
2023-05-20T15:35:01.907Z,3.42
2023-05-20T15:45:09.784Z,12.73
2023-05-20T15:50:12.928Z,7.68
2023-05-20T15:55:14.985Z,3.72
2023-05-20T16:00:19.168Z,3.55
2023-05-20T16:05:22.244Z,4.50
2023-05-20T16:10:26.071Z,4.18
2023-05-20T16:15:28.152Z,2.28
2023-05-20T16:20:31.269Z,3.63
2023-05-20T16:25:32.897Z,4.97
2023-05-20T16:30:35.358Z,10.40
2023-05-20T16:35:38.641Z,3.92
2023-05-20T16:40:40.311Z,4.13
2023-05-20T16:45:42.004Z,6.78
2023-05-20T16:50:45.056Z,8.27
2023-05-20T16:55:46.731Z,4.40
2023-05-20T17:00:48.491Z,7.18
2023-05-20T17:05:51.697Z,2.33
2023-05-20T17:10:54.314Z,4.47
2023-05-20T17:15:56.241Z,4.47
2023-05-20T17:20:59.350Z,3.10
2023-05-20T17:26:01.175Z,9.68
2023-05-20T17:31:02.895Z,4.00
2023-05-20T17:36:06.646Z,6.82
2023-05-20T17:41:08.367Z,3.63
2023-05-20T17:46:10.807Z,4.78
2023-05-20T17:51:14.120Z,4.68
2023-05-20T17:56:42.760Z,3.58
2023-05-20T18:02:04.112Z,4.45
2023-05-20T18:07:19.169Z,2.42
2023-05-20T18:12:51.793Z,5.05
2023-05-20T18:18:02.766Z,7.03
2023-05-20T18:23:25.615Z,4.10
2023-05-20T18:29:06.424Z,7.53
2023-05-20T18:34:11.006Z,5.68
2023-05-20T18:39:25.780Z,4.83
2023-05-20T18:44:36.657Z,6.67
2023-05-20T18:49:41.401Z,7.47
2023-05-20T19:01:31.041Z,5.63
2023-05-20T19:12:42.211Z,5.40
2023-05-20T19:18:08.420Z,5.15
2023-05-20T19:23:19.337Z,4.63
2023-05-20T19:40:36.908Z,3.67
2023-05-20T19:46:09.976Z,7.30
2023-05-20T19:57:38.570Z,6.25
2023-05-20T20:08:38.469Z,6.13
2023-05-20T20:13:41.611Z,5.60
2023-05-20T20:18:43.434Z,9.43
2023-05-20T20:23:45.147Z,7.60
2023-05-20T20:28:48.260Z,7.53
2023-05-20T20:33:49.917Z,8.98
2023-05-20T20:38:51.601Z,6.68
2023-05-20T20:43:54.727Z,7.60
2023-05-20T20:48:56.465Z,6.50
2023-05-20T20:53:58.281Z,10.95
2023-05-20T20:59:01.465Z,7.43
2023-05-20T21:04:03.755Z,8.18
2023-05-20T21:09:05.537Z,7.18
2023-05-20T21:14:09.054Z,6.15
2023-05-20T21:19:10.765Z,10.48
2023-05-20T21:24:12.459Z,8.18
2023-05-20T21:29:18.281Z,9.55
2023-05-20T21:34:20.556Z,8.43
2023-05-20T21:39:22.366Z,7.05
2023-05-20T21:44:25.511Z,6.75
2023-05-20T21:49:27.200Z,7.65
2023-05-20T21:54:28.832Z,7.20
2023-05-20T21:59:31.904Z,7.78
2023-05-20T22:04:33.735Z,8.43
2023-05-20T22:09:35.624Z,8.48
2023-05-20T22:14:38.682Z,6.78
2023-05-20T22:19:40.469Z,6.22
2023-05-20T22:24:42.198Z,10.23
2023-05-20T22:29:45.351Z,8.52
2023-05-20T22:34:47.108Z,10.15
2023-05-20T22:39:48.791Z,11.38
2023-05-20T22:44:51.913Z,10.93
2023-05-20T22:49:53.613Z,7.95
2023-05-20T22:54:58.639Z,8.65
2023-05-20T23:00:01.746Z,8.15
2023-05-20T23:12:01.820Z,8.23
2023-05-20T23:17:04.995Z,8.93
2023-05-20T23:22:06.735Z,7.00
2023-05-20T23:27:08.475Z,10.60
2023-05-20T23:32:11.555Z,9.07
2023-05-20T23:37:13.339Z,8.38
2023-05-20T23:42:15.243Z,9.20
2023-05-20T23:47:18.538Z,8.85
2023-05-20T23:52:20.307Z,12.55
2023-05-20T23:57:22.548Z,10.45
